createdAt,value
2018-12-19T00:02:00.668Z,36.70
2018-12-19T00:04:29.359Z,37.37
2018-12-19T00:06:57.960Z,34.57
2018-12-19T00:09:26.540Z,34.13
2018-12-19T00:11:55.978Z,38.63
2018-12-19T00:14:26.025Z,33.10
2018-12-19T00:16:56.482Z,35.80
2018-12-19T00:19:25.166Z,32.50
2018-12-19T00:21:54.302Z,35.00
2018-12-19T00:24:23.644Z,32.03
2018-12-19T00:26:53.002Z,32.77
2018-12-19T00:29:22.568Z,36.27
2018-12-19T00:31:51.262Z,34.10
2018-12-19T00:34:19.783Z,34.00
2018-12-19T00:36:48.474Z,33.60
2018-12-19T00:39:17.203Z,31.40
2018-12-19T00:41:45.215Z,31.80
2018-12-19T00:44:14.052Z,31.37
2018-12-19T00:46:42.162Z,29.60
2018-12-19T00:49:11.147Z,28.87
2018-12-19T00:51:42.024Z,29.07
2018-12-19T00:54:10.155Z,31.40
2018-12-19T00:56:38.136Z,28.13
2018-12-19T00:59:06.080Z,32.00
2018-12-19T01:01:35.495Z,29.47
2018-12-19T01:04:03.524Z,30.60
2018-12-19T01:06:31.659Z,26.70
2018-12-19T01:08:59.760Z,26.47
2018-12-19T01:11:28.600Z,27.93
2018-12-19T01:13:57.546Z,28.60
2018-12-19T01:16:26.673Z,28.40
2018-12-19T01:18:55.601Z,25.70
2018-12-19T01:21:23.540Z,29.47
2018-12-19T01:23:52.956Z,26.20
2018-12-19T01:26:22.190Z,27.57
2018-12-19T01:28:50.231Z,26.97
2018-12-19T01:31:18.955Z,28.57
2018-12-19T01:33:47.761Z,26.30
2018-12-19T01:36:17.155Z,27.80
2018-12-19T01:38:45.334Z,28.07
2018-12-19T01:41:15.175Z,28.17
2018-12-19T01:43:44.559Z,30.03
2018-12-19T01:46:14.524Z,28.60
2018-12-19T01:48:43.212Z,30.30
2018-12-19T01:51:11.744Z,32.43
2018-12-19T01:53:41.052Z,31.93
2018-12-19T01:56:09.073Z,29.80
2018-12-19T01:58:37.908Z,31.73
2018-12-19T02:01:06.847Z,28.43
2018-12-19T02:03:35.673Z,30.40
2018-12-19T02:06:04.087Z,31.63
2018-12-19T02:08:33.998Z,30.03
2018-12-19T02:11:04.315Z,27.77
2018-12-19T02:13:32.428Z,29.53
2018-12-19T02:16:00.707Z,29.60
2018-12-19T02:18:28.657Z,27.90
2018-12-19T02:20:56.898Z,27.83
2018-12-19T02:23:25.446Z,30.13
2018-12-19T02:25:53.745Z,29.93
2018-12-19T02:28:22.294Z,29.77
2018-12-19T02:30:50.731Z,28.70
2018-12-19T02:33:19.405Z,30.63
2018-12-19T02:35:48.073Z,28.83
2018-12-19T02:38:17.267Z,29.90
2018-12-19T02:40:47.223Z,29.70
2018-12-19T02:43:16.392Z,31.90
2018-12-19T02:45:45.197Z,30.37
2018-12-19T02:48:13.132Z,31.80
2018-12-19T02:50:41.802Z,33.57
2018-12-19T02:53:09.801Z,31.13
2018-12-19T02:55:37.927Z,33.63
2018-12-19T02:58:05.996Z,29.67
2018-12-19T03:00:34.726Z,33.20
2018-12-19T03:03:02.723Z,32.70
2018-12-19T03:05:32.184Z,34.33
2018-12-19T03:08:00.824Z,35.63
2018-12-19T03:10:30.229Z,34.20
2018-12-19T03:12:58.889Z,34.90
2018-12-19T03:15:26.895Z,32.30
2018-12-19T03:17:55.020Z,34.57
2018-12-19T03:20:24.394Z,32.27
2018-12-19T03:22:53.273Z,30.50
2018-12-19T03:25:21.930Z,31.27
2018-12-19T03:27:49.941Z,30.60
2018-12-19T03:30:18.929Z,35.50
2018-12-19T03:32:47.595Z,36.67
2018-12-19T03:35:16.522Z,35.23
2018-12-19T03:37:45.765Z,33.23
2018-12-19T03:40:14.430Z,35.63
2018-12-19T03:42:42.513Z,35.97
2018-12-19T03:45:11.632Z,32.10
2018-12-19T03:47:39.815Z,34.30
2018-12-19T03:50:09.667Z,34.70
2018-12-19T03:52:40.066Z,35.73
2018-12-19T03:55:09.102Z,38.23
2018-12-19T03:57:37.880Z,35.13
2018-12-19T04:00:07.869Z,34.47
2018-12-19T04:02:37.151Z,34.40
2018-12-19T04:05:06.702Z,34.17
2018-12-19T04:07:35.256Z,33.57
2018-12-19T04:10:04.598Z,35.20
2018-12-19T04:12:33.951Z,33.27
2018-12-19T04:15:02.132Z,36.17
2018-12-19T04:17:31.686Z,36.23
2018-12-19T04:20:00.294Z,36.90
2018-12-19T04:22:28.247Z,35.37
2018-12-19T04:24:56.435Z,37.60
2018-12-19T04:27:25.198Z,36.70
2018-12-19T04:29:53.649Z,34.80
2018-12-19T04:32:21.949Z,37.03
2018-12-19T04:34:51.694Z,37.40
2018-12-19T04:37:19.695Z,36.40
2018-12-19T04:39:48.971Z,36.00
2018-12-19T04:42:17.791Z,36.67
2018-12-19T04:44:46.149Z,38.70
2018-12-19T04:47:14.881Z,38.93
2018-12-19T04:49:43.943Z,40.70
2018-12-19T04:52:12.642Z,38.50
2018-12-19T04:54:40.658Z,37.17
2018-12-19T04:57:08.795Z,40.37
2018-12-19T04:59:37.902Z,41.60
2018-12-19T05:02:06.431Z,37.77
2018-12-19T05:04:34.526Z,38.87
2018-12-19T05:07:03.576Z,42.20
2018-12-19T05:09:32.470Z,42.40
2018-12-19T05:12:00.697Z,43.07
2018-12-19T05:14:29.328Z,45.00
2018-12-19T05:16:58.077Z,42.27
2018-12-19T05:19:27.346Z,48.27
2018-12-19T05:21:56.221Z,43.60
2018-12-19T05:24:25.005Z,44.87
2018-12-19T05:26:53.800Z,45.67
2018-12-19T05:29:22.451Z,47.00
2018-12-19T05:31:51.618Z,48.80
2018-12-19T05:34:20.821Z,50.03
2018-12-19T05:36:48.953Z,53.67
2018-12-19T05:39:18.544Z,64.60
2018-12-19T05:41:47.351Z,55.37
2018-12-19T05:44:15.367Z,50.57
2018-12-19T05:46:44.825Z,52.83
2018-12-19T05:49:13.006Z,51.50
2018-12-19T05:51:42.979Z,49.70
2018-12-19T05:54:11.049Z,53.27
2018-12-19T05:56:39.103Z,50.17
2018-12-19T05:59:07.261Z,55.03
2018-12-19T06:01:37.213Z,52.10
2018-12-19T06:04:05.292Z,49.20
2018-12-19T06:06:33.581Z,48.10
2018-12-19T06:09:01.898Z,49.80
2018-12-19T06:11:31.274Z,52.17
2018-12-19T06:13:59.499Z,50.50
2018-12-19T06:16:27.891Z,51.20
2018-12-19T06:18:56.662Z,49.90
2018-12-19T06:21:24.898Z,48.70
2018-12-19T06:23:54.058Z,51.60
2018-12-19T06:26:22.691Z,54.40
2018-12-19T06:28:50.773Z,57.13
2018-12-19T06:31:20.128Z,60.33
2018-12-19T06:33:48.702Z,58.97
2018-12-19T06:36:17.505Z,46.30
2018-12-19T06:38:46.447Z,58.73
2018-12-19T06:41:15.333Z,48.53
2018-12-19T06:43:44.673Z,49.43
2018-12-19T06:46:13.616Z,48.87
2018-12-19T06:48:43.404Z,49.57
2018-12-19T06:51:12.161Z,48.60
2018-12-19T06:53:41.659Z,52.23
2018-12-19T06:56:10.585Z,51.23
2018-12-19T06:58:40.473Z,48.30
2018-12-19T07:01:10.181Z,47.70
2018-12-19T07:03:38.327Z,46.23
2018-12-19T07:06:06.953Z,44.07
2018-12-19T07:08:35.478Z,47.33
2018-12-19T07:11:03.646Z,47.90
2018-12-19T07:13:33.048Z,48.03
2018-12-19T07:16:02.086Z,43.70
2018-12-19T07:18:32.329Z,46.43
2018-12-19T07:21:00.966Z,44.50
2018-12-19T07:23:29.176Z,42.73
2018-12-19T07:25:58.791Z,42.47
2018-12-19T07:28:27.559Z,41.77
2018-12-19T07:30:58.136Z,43.00
2018-12-19T07:33:27.056Z,42.63
2018-12-19T07:35:56.368Z,41.47
2018-12-19T07:38:25.038Z,42.97
2018-12-19T07:40:53.548Z,43.27
2018-12-19T07:43:21.552Z,41.33
2018-12-19T07:45:49.553Z,42.27
2018-12-19T07:48:18.886Z,39.87
2018-12-19T07:50:47.907Z,40.23
2018-12-19T07:53:16.763Z,38.03
2018-12-19T07:55:46.983Z,35.80
2018-12-19T07:58:16.423Z,41.63
2018-12-19T08:00:44.578Z,78.07
2018-12-19T08:03:14.605Z,53.67
2018-12-19T08:05:45.189Z,48.00
2018-12-19T08:08:13.206Z,46.30
2018-12-19T08:10:42.492Z,39.37
2018-12-19T08:13:12.376Z,60.53
2018-12-19T08:15:42.864Z,73.77
2018-12-19T08:18:11.053Z,49.37
2018-12-19T08:20:40.732Z,38.70
2018-12-19T08:23:08.886Z,36.20
2018-12-19T08:25:37.143Z,38.20
2018-12-19T08:28:07.726Z,39.40
2018-12-19T08:30:36.460Z,38.13
2018-12-19T08:33:07.623Z,33.70
2018-12-19T08:35:36.316Z,36.57
2018-12-19T08:38:07.457Z,41.60
2018-12-19T08:40:36.853Z,35.37
2018-12-19T08:43:05.766Z,36.43
2018-12-19T08:45:34.848Z,37.17
2018-12-19T08:48:03.220Z,36.03
2018-12-19T08:50:32.533Z,33.30
2018-12-19T08:53:00.655Z,33.67
2018-12-19T08:55:29.404Z,35.17
2018-12-19T08:57:58.165Z,31.27
2018-12-19T09:00:29.206Z,35.87
2018-12-19T09:02:59.907Z,33.20
2018-12-19T09:05:28.919Z,36.10
2018-12-19T09:08:00.671Z,36.67
2018-12-19T09:10:28.796Z,34.80
2018-12-19T09:12:57.741Z,35.97
2018-12-19T09:15:35.655Z,35.83
2018-12-19T09:18:04.545Z,38.17
2018-12-19T09:20:33.871Z,35.77
2018-12-19T09:23:04.544Z,36.03
2018-12-19T09:25:33.926Z,34.40
2018-12-19T09:28:02.906Z,34.60
2018-12-19T09:30:32.274Z,32.23
2018-12-19T09:33:01.092Z,34.33
2018-12-19T09:35:30.114Z,34.70
2018-12-19T09:38:00.114Z,29.73
2018-12-19T09:40:29.012Z,34.23
2018-12-19T09:42:57.661Z,31.40
2018-12-19T09:45:26.902Z,32.30
2018-12-19T09:47:57.301Z,32.80
2018-12-19T09:50:27.396Z,38.20
2018-12-19T09:53:00.077Z,34.77
2018-12-19T09:55:29.373Z,33.40
2018-12-19T09:57:59.448Z,41.87
2018-12-19T10:00:28.370Z,30.60
2018-12-19T10:02:56.665Z,33.93
2018-12-19T10:05:26.825Z,32.40
2018-12-19T10:07:58.880Z,29.90
2018-12-19T10:10:27.591Z,31.23
2018-12-19T10:12:57.927Z,33.57
2018-12-19T10:15:27.621Z,28.97
2018-12-19T10:18:00.731Z,29.70
2018-12-19T10:20:31.272Z,33.80
2018-12-19T10:23:01.102Z,32.00
2018-12-19T10:25:36.000Z,31.03
2018-12-19T10:28:06.351Z,31.00
2018-12-19T10:30:39.060Z,31.50
2018-12-19T10:33:10.482Z,29.97
2018-12-19T10:35:39.465Z,28.40
2018-12-19T10:38:10.210Z,26.90
2018-12-19T10:40:41.927Z,31.60
2018-12-19T10:43:11.676Z,30.70
2018-12-19T10:45:45.265Z,30.10
2018-12-19T10:48:13.875Z,76.90
2018-12-19T10:50:46.480Z,54.17
2018-12-19T10:53:15.484Z,51.50
2018-12-19T10:55:47.933Z,31.40
2018-12-19T10:58:17.416Z,32.70
2018-12-19T11:00:53.065Z,65.47
2018-12-19T11:03:23.462Z,31.20
2018-12-19T11:05:54.448Z,31.00
2018-12-19T11:08:26.177Z,30.00
2018-12-19T11:11:03.295Z,40.00
2018-12-19T11:13:33.214Z,44.70
2018-12-19T11:16:06.638Z,32.77
2018-12-19T11:18:35.798Z,35.37
2018-12-19T11:21:06.792Z,34.80
2018-12-19T11:23:37.236Z,36.93
2018-12-19T11:26:08.384Z,34.70
2018-12-19T11:28:44.003Z,32.20
2018-12-19T11:31:17.558Z,38.67
2018-12-19T11:33:48.265Z,32.47
2018-12-19T11:38:57.174Z,32.10
2018-12-19T11:41:26.023Z,33.07
2018-12-19T11:43:55.534Z,35.47
2018-12-19T11:46:24.704Z,33.20
2018-12-19T11:48:55.335Z,31.60
2018-12-19T11:51:32.020Z,30.50
2018-12-19T11:54:01.428Z,31.27
2018-12-19T11:56:37.061Z,31.23
2018-12-19T11:59:08.409Z,31.10
2018-12-19T12:01:43.378Z,32.53
2018-12-19T12:04:12.013Z,32.30
2018-12-19T12:06:42.331Z,32.10
2018-12-19T12:09:11.798Z,31.00
2018-12-19T12:11:45.788Z,32.30
2018-12-19T12:14:16.674Z,34.47
2018-12-19T12:16:55.883Z,33.77
2018-12-19T12:19:25.031Z,32.30
2018-12-19T12:21:53.547Z,32.13
2018-12-19T12:24:24.131Z,32.90
2018-12-19T12:26:56.949Z,33.23
2018-12-19T12:29:25.995Z,34.40
2018-12-19T12:34:35.598Z,34.13
2018-12-19T12:37:06.116Z,31.43
2018-12-19T12:39:34.379Z,32.27
2018-12-19T12:42:11.018Z,32.50
2018-12-19T12:44:42.754Z,33.63
2018-12-19T12:47:26.440Z,32.97
2018-12-19T12:49:56.892Z,30.83
2018-12-19T12:52:27.096Z,32.03
2018-12-19T12:54:59.048Z,32.40
2018-12-19T12:57:29.126Z,33.27
2018-12-19T13:00:01.094Z,32.97
2018-12-19T13:02:30.536Z,34.80
2018-12-19T13:04:59.886Z,34.43
2018-12-19T13:07:29.764Z,33.00
2018-12-19T13:09:58.945Z,31.30
2018-12-19T13:12:29.085Z,33.67
2018-12-19T13:14:57.967Z,34.03
2018-12-19T13:17:33.425Z,33.07
2018-12-19T13:20:07.422Z,32.27
2018-12-19T13:22:37.347Z,32.37
2018-12-19T13:25:06.509Z,32.23
2018-12-19T13:30:15.320Z,33.60
2018-12-19T13:32:44.443Z,34.63
2018-12-19T13:35:14.460Z,35.27
2018-12-19T13:37:43.655Z,33.10
2018-12-19T13:40:12.372Z,33.47
2018-12-19T13:42:43.208Z,34.27
2018-12-19T13:45:14.731Z,33.23
2018-12-19T13:47:48.068Z,33.50
2018-12-19T13:50:24.925Z,35.87
2018-12-19T13:52:59.635Z,36.90
2018-12-19T13:55:31.932Z,34.60
2018-12-19T13:58:07.169Z,34.60
2018-12-19T14:00:38.411Z,58.70
2018-12-19T14:03:08.067Z,33.60
2018-12-19T14:05:36.198Z,31.20
2018-12-19T14:08:05.029Z,34.00
2018-12-19T14:10:34.600Z,35.73
2018-12-19T14:13:03.173Z,38.00
2018-12-19T14:15:32.319Z,35.13
2018-12-19T14:18:06.887Z,34.57
2018-12-19T14:20:37.507Z,33.90
2018-12-19T14:23:05.970Z,36.83
2018-12-19T14:25:34.590Z,35.47
2018-12-19T14:28:05.086Z,35.00
2018-12-19T14:30:35.541Z,33.50
2018-12-19T14:33:05.258Z,36.17
2018-12-19T14:35:36.377Z,31.90
2018-12-19T14:38:06.545Z,32.80
2018-12-19T14:40:34.757Z,38.03
2018-12-19T14:43:05.425Z,37.20
2018-12-19T14:45:38.907Z,35.47
2018-12-19T14:48:12.528Z,35.13
2018-12-19T14:50:41.261Z,35.33
2018-12-19T14:53:09.408Z,35.80
2018-12-19T14:55:37.764Z,39.40
2018-12-19T14:58:06.456Z,39.40
2018-12-19T15:00:36.365Z,39.83
2018-12-19T15:03:05.827Z,41.90
2018-12-19T15:05:35.393Z,38.57
2018-12-19T15:08:05.599Z,41.37
2018-12-19T15:10:34.947Z,40.33
2018-12-19T15:13:05.994Z,39.40
2018-12-19T15:15:37.533Z,42.47
2018-12-19T15:18:09.552Z,41.20
2018-12-19T15:20:38.603Z,45.10
2018-12-19T15:23:08.706Z,43.53
2018-12-19T15:25:38.029Z,49.00
2018-12-19T15:28:06.206Z,42.70
2018-12-19T15:30:36.008Z,45.90
2018-12-19T15:33:05.661Z,44.47
2018-12-19T15:35:39.776Z,50.13
2018-12-19T15:38:09.227Z,44.57
2018-12-19T15:40:38.025Z,44.73
2018-12-19T15:43:06.753Z,44.90
2018-12-19T15:45:37.605Z,46.57
2018-12-19T15:48:12.142Z,48.57
2018-12-19T15:50:44.127Z,53.27
2018-12-19T15:53:13.193Z,65.80
2018-12-19T15:55:42.027Z,53.60
2018-12-19T15:58:12.185Z,63.77
2018-12-19T16:00:41.803Z,55.43
2018-12-19T16:03:11.806Z,64.23
2018-12-19T16:05:42.693Z,50.50
2018-12-19T16:08:10.751Z,62.47
2018-12-19T16:10:40.943Z,57.73
2018-12-19T16:13:10.290Z,53.87
2018-12-19T16:15:39.542Z,54.67
2018-12-19T16:18:08.621Z,55.50
2018-12-19T16:20:38.985Z,46.23
2018-12-19T16:23:09.074Z,51.10
2018-12-19T16:25:38.165Z,46.03
2018-12-19T16:28:07.005Z,48.57
2018-12-19T16:30:36.575Z,50.07
2018-12-19T16:33:05.769Z,48.87
2018-12-19T16:35:34.604Z,44.63
2018-12-19T16:38:04.980Z,46.13
2018-12-19T16:40:34.178Z,44.37
2018-12-19T16:43:03.647Z,44.43
2018-12-19T16:45:32.569Z,44.37
2018-12-19T16:48:04.226Z,44.17
2018-12-19T16:50:33.274Z,42.30
2018-12-19T16:53:07.447Z,48.07
2018-12-19T16:55:39.730Z,43.27
2018-12-19T16:58:09.211Z,46.53
2018-12-19T17:00:41.478Z,44.63
2018-12-19T17:05:54.314Z,40.13
2018-12-19T17:08:28.936Z,44.70
2018-12-19T17:11:03.471Z,42.27
2018-12-19T17:13:32.936Z,40.40
2018-12-19T17:16:03.681Z,36.57
2018-12-19T17:18:34.640Z,38.80
2018-12-19T17:23:42.560Z,39.30
2018-12-19T17:26:14.849Z,39.23
2018-12-19T17:28:44.029Z,37.93
2018-12-19T17:31:16.244Z,38.27
2018-12-19T17:33:59.007Z,37.23
2018-12-19T17:36:28.621Z,37.87
2018-12-19T17:38:58.329Z,45.40
2018-12-19T17:41:39.003Z,53.43
2018-12-19T17:44:10.532Z,43.80
2018-12-19T17:46:42.899Z,45.50
2018-12-19T17:49:13.969Z,41.53
2018-12-19T17:51:44.465Z,35.97
2018-12-19T17:54:15.287Z,35.87
2018-12-19T17:56:43.647Z,34.33
2018-12-19T17:59:11.706Z,35.97
2018-12-19T18:01:47.527Z,37.80
2018-12-19T18:04:22.045Z,33.10
2018-12-19T18:06:51.974Z,34.77
2018-12-19T18:09:22.791Z,33.50
2018-12-19T18:11:53.004Z,36.20
2018-12-19T18:14:26.682Z,29.90
2018-12-19T18:16:58.380Z,31.23
2018-12-19T18:19:33.930Z,32.53
2018-12-19T18:22:12.649Z,29.40
2018-12-19T18:24:42.459Z,33.70
2018-12-19T18:27:14.816Z,33.37
2018-12-19T18:29:45.491Z,36.57
2018-12-19T18:32:16.061Z,35.23
2018-12-19T18:34:48.165Z,39.07
2018-12-19T18:37:28.273Z,39.83
2018-12-19T18:40:06.706Z,38.27
2018-12-19T18:42:44.973Z,39.27
2018-12-19T18:45:17.673Z,39.80
2018-12-19T18:50:30.050Z,38.50
2018-12-19T18:53:01.315Z,40.07
2018-12-19T18:55:33.361Z,39.70
2018-12-19T18:58:03.439Z,39.90
2018-12-19T19:00:46.434Z,39.80
2018-12-19T19:03:15.717Z,41.73
2018-12-19T19:05:47.559Z,40.97
2018-12-19T19:08:19.142Z,40.70
2018-12-19T19:11:04.813Z,41.87
2018-12-19T19:13:46.408Z,38.57
2018-12-19T19:16:24.073Z,39.70
2018-12-19T19:18:53.261Z,40.47
2018-12-19T19:21:29.843Z,39.30
2018-12-19T19:23:58.030Z,39.10
2018-12-19T19:26:29.447Z,39.00
2018-12-19T19:29:05.190Z,43.83
2018-12-19T19:34:25.941Z,38.93
2018-12-19T19:37:05.687Z,37.50
2018-12-19T19:39:54.956Z,38.80
2018-12-19T19:42:30.708Z,42.17
2018-12-19T19:47:41.702Z,45.10
2018-12-19T19:50:11.806Z,44.20
2018-12-19T19:52:50.843Z,41.63
2018-12-19T19:55:19.734Z,46.40
2018-12-19T19:57:53.230Z,43.73
2018-12-19T20:00:36.216Z,45.87
2018-12-19T20:03:20.318Z,44.13
2018-12-19T20:05:53.358Z,45.10
2018-12-19T20:11:06.814Z,45.10
2018-12-19T20:16:28.678Z,51.17
2018-12-19T20:18:58.005Z,46.03
2018-12-19T20:21:27.269Z,46.47
2018-12-19T20:23:57.320Z,46.03
2018-12-19T20:26:26.801Z,42.93
2018-12-19T20:28:59.481Z,46.40
2018-12-19T20:31:30.991Z,47.33
2018-12-19T20:33:59.215Z,51.70
2018-12-19T20:36:28.516Z,49.70
2018-12-19T20:39:05.575Z,46.27
2018-12-19T20:41:34.250Z,47.10
2018-12-19T20:44:16.620Z,46.77
2018-12-19T20:46:57.450Z,45.97
2018-12-19T20:49:27.962Z,47.67
2018-12-19T20:57:25.661Z,43.43
2018-12-19T21:00:00.217Z,47.37
2018-12-19T21:02:29.530Z,43.40
2018-12-19T21:05:01.370Z,44.47
2018-12-19T21:10:05.847Z,44.47
2018-12-19T21:15:14.196Z,40.03
2018-12-19T21:17:52.468Z,40.40
2018-12-19T21:20:28.808Z,38.40
2018-12-19T21:23:06.303Z,40.40
2018-12-19T21:25:36.010Z,37.70
2018-12-19T21:28:06.510Z,39.33
2018-12-19T21:30:39.014Z,37.13
2018-12-19T21:36:03.005Z,40.13
2018-12-19T21:38:32.400Z,33.33
2018-12-19T21:43:39.509Z,35.07
2018-12-19T21:46:09.764Z,34.00
2018-12-19T21:48:45.012Z,35.67
2018-12-19T21:51:15.913Z,30.43
2018-12-19T21:53:45.255Z,29.50
2018-12-19T21:56:14.768Z,29.33
2018-12-19T21:58:43.477Z,36.80
2018-12-19T22:01:11.547Z,30.00
2018-12-19T22:03:46.625Z,29.07
2018-12-19T22:06:21.410Z,28.60
2018-12-19T22:08:50.451Z,28.73
2018-12-19T22:11:22.209Z,31.10
2018-12-19T22:13:50.802Z,28.77
2018-12-19T22:16:26.055Z,30.88
2018-12-19T22:21:45.630Z,26.80
2018-12-19T22:24:13.984Z,27.70
2018-12-19T22:26:43.817Z,27.53
2018-12-19T22:29:12.896Z,27.77
2018-12-19T22:31:42.119Z,27.37
2018-12-19T22:34:10.946Z,27.57
2018-12-19T22:36:40.181Z,29.57
2018-12-19T22:39:13.794Z,29.60
2018-12-19T22:41:43.340Z,30.17
2018-12-19T22:44:14.078Z,28.90
2018-12-19T22:46:42.952Z,28.70
2018-12-19T22:49:19.897Z,27.77
2018-12-19T22:51:48.737Z,28.65
2018-12-19T22:54:17.174Z,28.83
2018-12-19T22:56:45.432Z,30.60
2018-12-19T22:59:15.241Z,29.50
2018-12-19T23:01:49.838Z,30.52
2018-12-19T23:04:19.820Z,32.58
2018-12-19T23:06:49.138Z,29.98
2018-12-19T23:09:18.414Z,30.68
2018-12-19T23:11:47.082Z,33.65
2018-12-19T23:14:16.082Z,30.35
2018-12-19T23:16:45.509Z,35.13
2018-12-19T23:19:17.173Z,35.23
2018-12-19T23:21:47.316Z,33.50
2018-12-19T23:24:15.689Z,31.47
2018-12-19T23:26:45.855Z,37.73
2018-12-19T23:29:13.952Z,35.65
2018-12-19T23:31:43.057Z,34.15
2018-12-19T23:34:12.195Z,36.15
2018-12-19T23:36:40.721Z,34.75
2018-12-19T23:39:09.603Z,34.90
2018-12-19T23:41:39.040Z,35.85
2018-12-19T23:44:07.163Z,36.10
2018-12-19T23:46:35.324Z,36.70
2018-12-19T23:49:04.798Z,38.13
2018-12-19T23:51:35.530Z,36.37
2018-12-19T23:54:05.177Z,40.20
2018-12-19T23:56:34.024Z,38.80
2018-12-19T23:59:02.798Z,40.35
